sensor_id;sensor_type;location;lat;lon;timestamp;pressure;altitude;pressure_sealevel;temperature;humidity
17362;BME280;8798;51.938;4.348;2022-09-14T00:01:07;100718.25;;;19.79;64.44
17362;BME280;8798;51.938;4.348;2022-09-14T00:03:51;100715.72;;;19.77;64.55
17362;BME280;8798;51.938;4.348;2022-09-14T00:06:19;100720.34;;;19.76;64.51
17362;BME280;8798;51.938;4.348;2022-09-14T00:08:50;100723.06;;;19.76;64.71
17362;BME280;8798;51.938;4.348;2022-09-14T00:11:20;100724.97;;;19.76;64.67
17362;BME280;8798;51.938;4.348;2022-09-14T00:13:48;100719.72;;;19.74;64.75
17362;BME280;8798;51.938;4.348;2022-09-14T00:16:19;100709.25;;;19.71;64.64
17362;BME280;8798;51.938;4.348;2022-09-14T00:18:49;100705.88;;;19.69;64.70
17362;BME280;8798;51.938;4.348;2022-09-14T00:21:17;100704.22;;;19.68;64.58
17362;BME280;8798;51.938;4.348;2022-09-14T00:23:46;100706.09;;;19.68;64.65
17362;BME280;8798;51.938;4.348;2022-09-14T00:26:17;100714.06;;;19.69;64.77
17362;BME280;8798;51.938;4.348;2022-09-14T00:28:47;100719.72;;;19.68;64.89
17362;BME280;8798;51.938;4.348;2022-09-14T00:31:15;100724.13;;;19.69;64.76
17362;BME280;8798;51.938;4.348;2022-09-14T00:33:44;100716.16;;;19.67;65.04
17362;BME280;8798;51.938;4.348;2022-09-14T00:36:15;100718.88;;;19.67;64.81
17362;BME280;8798;51.938;4.348;2022-09-14T00:38:44;100717.19;;;19.66;64.90
17362;BME280;8798;51.938;4.348;2022-09-14T00:41:17;100726.22;;;19.67;64.70
17362;BME280;8798;51.938;4.348;2022-09-14T00:43:53;100733.34;;;19.68;64.83
17362;BME280;8798;51.938;4.348;2022-09-14T00:46:22;100729.78;;;19.67;64.58
17362;BME280;8798;51.938;4.348;2022-09-14T00:48:49;100734.38;;;19.67;64.77
17362;BME280;8798;51.938;4.348;2022-09-14T00:51:20;100731.88;;;19.65;65.06
17362;BME280;8798;51.938;4.348;2022-09-14T00:53:48;100731.03;;;19.65;64.89
17362;BME280;8798;51.938;4.348;2022-09-14T00:56:18;100724.75;;;19.64;64.98
17362;BME280;8798;51.938;4.348;2022-09-14T00:58:48;100712.59;;;19.60;64.84
17362;BME280;8798;51.938;4.348;2022-09-14T01:01:18;100702.13;;;19.57;64.90
17362;BME280;8798;51.938;4.348;2022-09-14T01:03:46;100713.03;;;19.57;64.90
17362;BME280;8798;51.938;4.348;2022-09-14T01:06:18;100714.94;;;19.57;64.84
17362;BME280;8798;51.938;4.348;2022-09-14T01:09:00;100702.56;;;19.54;65.07
17362;BME280;8798;51.938;4.348;2022-09-14T01:11:45;100689.56;;;19.49;65.03
17362;BME280;8798;51.938;4.348;2022-09-14T01:14:24;100662.34;;;19.43;64.97
17362;BME280;8798;51.938;4.348;2022-09-14T01:17:00;100655.44;;;19.40;65.13
17362;BME280;8798;51.938;4.348;2022-09-14T01:19:43;100656.72;;;19.38;65.21
17362;BME280;8798;51.938;4.348;2022-09-14T01:22:23;100648.53;;;19.38;65.32
17362;BME280;8798;51.938;4.348;2022-09-14T01:24:55;100659.44;;;19.38;65.30
17362;BME280;8798;51.938;4.348;2022-09-14T01:27:30;100656.91;;;19.36;65.18
17362;BME280;8798;51.938;4.348;2022-09-14T01:30:05;100662.34;;;19.36;65.24
17362;BME280;8798;51.938;4.348;2022-09-14T01:32:39;100659.63;;;19.36;65.42
17362;BME280;8798;51.938;4.348;2022-09-14T01:35:14;100666.97;;;19.36;65.41
17362;BME280;8798;51.938;4.348;2022-09-14T01:37:46;100665.31;;;19.34;65.50
17362;BME280;8798;51.938;4.348;2022-09-14T01:40:21;100670.75;;;19.34;65.46
17362;BME280;8798;51.938;4.348;2022-09-14T01:42:53;100670.75;;;19.34;65.60
17362;BME280;8798;51.938;4.348;2022-09-14T01:45:22;100671.78;;;19.33;65.49
17362;BME280;8798;51.938;4.348;2022-09-14T01:47:53;100663.84;;;19.32;65.61
17362;BME280;8798;51.938;4.348;2022-09-14T01:50:24;100664.88;;;19.31;65.47
17362;BME280;8798;51.938;4.348;2022-09-14T01:52:57;100663.03;;;19.31;65.59
17362;BME280;8798;51.938;4.348;2022-09-14T01:55:29;100678.31;;;19.32;65.63
17362;BME280;8798;51.938;4.348;2022-09-14T01:58:03;100679.13;;;19.33;65.54
17362;BME280;8798;51.938;4.348;2022-09-14T02:00:35;100690.03;;;19.33;65.60
17362;BME280;8798;51.938;4.348;2022-09-14T02:03:10;100671.41;;;19.30;65.61
17362;BME280;8798;51.938;4.348;2022-09-14T02:05:42;100667.22;;;19.27;65.75
17362;BME280;8798;51.938;4.348;2022-09-14T02:08:12;100663.66;;;19.27;65.63
17362;BME280;8798;51.938;4.348;2022-09-14T02:10:40;100662.84;;;19.26;65.93
17362;BME280;8798;51.938;4.348;2022-09-14T02:13:09;100673.72;;;19.26;65.83
17362;BME280;8798;51.938;4.348;2022-09-14T02:15:37;100674.56;;;19.27;65.94
17362;BME280;8798;51.938;4.348;2022-09-14T02:18:06;100672.88;;;19.26;65.68
17362;BME280;8798;51.938;4.348;2022-09-14T02:20:38;100660.31;;;19.25;65.97
17362;BME280;8798;51.938;4.348;2022-09-14T02:23:08;100661.56;;;19.22;65.94
17362;BME280;8798;51.938;4.348;2022-09-14T02:25:36;100659.88;;;19.21;66.11
17362;BME280;8798;51.938;4.348;2022-09-14T02:28:06;100655.50;;;19.20;66.14
17362;BME280;8798;51.938;4.348;2022-09-14T02:30:42;100651.13;;;19.19;66.05
17362;BME280;8798;51.938;4.348;2022-09-14T02:33:20;100662.59;;;19.21;65.98
17362;BME280;8798;51.938;4.348;2022-09-14T02:35:50;100668.06;;;19.21;66.16
17362;BME280;8798;51.938;4.348;2022-09-14T02:38:26;100654.88;;;19.18;66.08
17362;BME280;8798;51.938;4.348;2022-09-14T02:41:00;100660.31;;;19.18;65.98
17362;BME280;8798;51.938;4.348;2022-09-14T02:43:35;100667.47;;;19.19;66.00
17362;BME280;8798;51.938;4.348;2022-09-14T02:46:14;100660.31;;;19.18;65.78
17362;BME280;8798;51.938;4.348;2022-09-14T02:48:48;100663.28;;;19.17;66.03
17362;BME280;8798;51.938;4.348;2022-09-14T02:51:25;100666.00;;;19.17;66.18
17362;BME280;8798;51.938;4.348;2022-09-14T02:53:58;100665.13;;;19.16;66.34
17362;BME280;8798;51.938;4.348;2022-09-14T02:56:27;100678.34;;;19.19;66.06
17362;BME280;8798;51.938;4.348;2022-09-14T02:58:56;100674.75;;;19.19;66.13
17362;BME280;8798;51.938;4.348;2022-09-14T03:01:25;100662.66;;;19.15;66.30
17362;BME280;8798;51.938;4.348;2022-09-14T03:03:53;100657.41;;;19.13;66.31
17362;BME280;8798;51.938;4.348;2022-09-14T03:06:21;100661.19;;;19.12;66.47
17362;BME280;8798;51.938;4.348;2022-09-14T03:08:49;100653.84;;;19.12;66.27
17362;BME280;8798;51.938;4.348;2022-09-14T03:11:17;100662.84;;;19.13;66.36
17362;BME280;8798;51.938;4.348;2022-09-14T03:13:46;100665.56;;;19.13;66.25
17362;BME280;8798;51.938;4.348;2022-09-14T03:16:17;100659.50;;;19.11;66.57
17362;BME280;8798;51.938;4.348;2022-09-14T03:18:46;100651.56;;;19.09;66.41
17362;BME280;8798;51.938;4.348;2022-09-14T03:21:15;100652.59;;;19.08;66.47
17362;BME280;8798;51.938;4.348;2022-09-14T03:23:44;100655.31;;;19.08;66.39
17362;BME280;8798;51.938;4.348;2022-09-14T03:26:14;100659.72;;;19.09;66.70
17362;BME280;8798;51.938;4.348;2022-09-14T03:28:42;100656.16;;;19.09;66.36
17362;BME280;8798;51.938;4.348;2022-09-14T03:31:11;100665.16;;;19.09;66.56
17362;BME280;8798;51.938;4.348;2022-09-14T03:33:39;100671.44;;;19.10;66.51
17362;BME280;8798;51.938;4.348;2022-09-14T03:36:13;100674.81;;;19.12;66.81
17362;BME280;8798;51.938;4.348;2022-09-14T03:38:42;100681.06;;;19.12;66.50
17362;BME280;8798;51.938;4.348;2022-09-14T03:41:11;100687.34;;;19.13;66.80
17362;BME280;8798;51.938;4.348;2022-09-14T03:43:40;100678.34;;;19.12;66.60
17362;BME280;8798;51.938;4.348;2022-09-14T03:46:12;100672.91;;;19.12;66.84
17362;BME280;8798;51.938;4.348;2022-09-14T03:48:40;100676.69;;;19.11;66.49
17362;BME280;8798;51.938;4.348;2022-09-14T03:51:09;100668.72;;;19.10;66.51
17362;BME280;8798;51.938;4.348;2022-09-14T03:53:39;100671.66;;;19.08;66.83
17362;BME280;8798;51.938;4.348;2022-09-14T03:56:09;100666.19;;;19.08;66.86
17362;BME280;8798;51.938;4.348;2022-09-14T03:58:37;100670.81;;;19.08;66.57
17362;BME280;8798;51.938;4.348;2022-09-14T04:01:06;100664.34;;;19.09;66.80
17362;BME280;8798;51.938;4.348;2022-09-14T04:03:35;100663.72;;;19.07;66.57
17362;BME280;8798;51.938;4.348;2022-09-14T04:06:04;100659.28;;;19.06;66.85
17362;BME280;8798;51.938;4.348;2022-09-14T04:08:32;100662.03;;;19.06;66.72
17362;BME280;8798;51.938;4.348;2022-09-14T04:11:05;100669.97;;;19.07;66.99
17362;BME280;8798;51.938;4.348;2022-09-14T04:13:33;100663.91;;;19.05;66.96
17362;BME280;8798;51.938;4.348;2022-09-14T04:16:01;100668.28;;;19.06;67.03
17362;BME280;8798;51.938;4.348;2022-09-14T04:18:29;100680.88;;;19.07;66.78
17362;BME280;8798;51.938;4.348;2022-09-14T04:20:58;100685.06;;;19.10;66.41
17362;BME280;8798;51.938;4.348;2022-09-14T04:23:33;100683.41;;;19.09;66.80
17362;BME280;8798;51.938;4.348;2022-09-14T04:26:19;100687.97;;;19.08;66.94
17362;BME280;8798;51.938;4.348;2022-09-14T04:28:47;100685.25;;;19.08;67.11
17362;BME280;8798;51.938;4.348;2022-09-14T04:31:15;100687.97;;;19.08;66.78
17362;BME280;8798;51.938;4.348;2022-09-14T04:33:43;100686.31;;;19.07;66.68
17362;BME280;8798;51.938;4.348;2022-09-14T04:36:13;100679.19;;;19.06;66.96
17362;BME280;8798;51.938;4.348;2022-09-14T04:38:41;100676.47;;;19.06;66.79
17362;BME280;8798;51.938;4.348;2022-09-14T04:41:11;100672.91;;;19.06;66.97
17362;BME280;8798;51.938;4.348;2022-09-14T04:43:40;100678.34;;;19.06;66.93
17362;BME280;8798;51.938;4.348;2022-09-14T04:46:10;100671.25;;;19.05;66.95
17362;BME280;8798;51.938;4.348;2022-09-14T04:48:38;100679.41;;;19.05;67.12
17362;BME280;8798;51.938;4.348;2022-09-14T04:51:08;100678.34;;;19.06;66.75
17362;BME280;8798;51.938;4.348;2022-09-14T04:53:37;100683.81;;;19.06;67.12
17362;BME280;8798;51.938;4.348;2022-09-14T04:56:07;100678.59;;;19.04;66.77
17362;BME280;8798;51.938;4.348;2022-09-14T04:58:37;100673.34;;;19.03;66.81
17362;BME280;8798;51.938;4.348;2022-09-14T05:01:08;100671.44;;;19.03;66.94
17362;BME280;8798;51.938;4.348;2022-09-14T05:03:38;100673.53;;;19.01;66.93
17362;BME280;8798;51.938;4.348;2022-09-14T05:06:07;100670.00;;;19.01;67.10
17362;BME280;8798;51.938;4.348;2022-09-14T05:08:35;100672.50;;;19.02;67.23
17362;BME280;8798;51.938;4.348;2022-09-14T05:11:05;100666.44;;;19.00;67.05
17362;BME280;8798;51.938;4.348;2022-09-14T05:13:33;100662.88;;;19.00;67.01
17362;BME280;8798;51.938;4.348;2022-09-14T05:16:07;100663.91;;;18.99;67.07
17362;BME280;8798;51.938;4.348;2022-09-14T05:18:36;100662.25;;;18.98;66.96
17362;BME280;8798;51.938;4.348;2022-09-14T05:21:05;100659.53;;;18.98;67.04
17362;BME280;8798;51.938;4.348;2022-09-14T05:23:34;100659.72;;;18.96;67.20
17362;BME280;8798;51.938;4.348;2022-09-14T05:26:02;100645.53;;;18.94;67.19
17362;BME280;8798;51.938;4.348;2022-09-14T05:28:31;100640.28;;;18.93;67.16
17362;BME280;8798;51.938;4.348;2022-09-14T05:31:03;100641.31;;;18.91;67.11
17362;BME280;8798;51.938;4.348;2022-09-14T05:33:32;100643.19;;;18.91;67.42
17362;BME280;8798;51.938;4.348;2022-09-14T05:36:01;100641.53;;;18.90;67.23
17362;BME280;8798;51.938;4.348;2022-09-14T05:38:31;100641.53;;;18.90;67.30
17362;BME280;8798;51.938;4.348;2022-09-14T05:40:59;100644.25;;;18.90;67.32
17362;BME280;8798;51.938;4.348;2022-09-14T05:43:27;100633.56;;;18.88;67.12
17362;BME280;8798;51.938;4.348;2022-09-14T05:45:59;100633.56;;;18.88;67.72
17362;BME280;8798;51.938;4.348;2022-09-14T05:48:29;100632.09;;;18.86;67.37
17362;BME280;8798;51.938;4.348;2022-09-14T05:50:59;100629.63;;;18.84;67.14
17362;BME280;8798;51.938;4.348;2022-09-14T05:53:27;100620.59;;;18.84;67.44
17362;BME280;8798;51.938;4.348;2022-09-14T05:55:58;100626.03;;;18.84;67.64
17362;BME280;8798;51.938;4.348;2022-09-14T05:58:26;100625.44;;;18.82;67.57
17362;BME280;8798;51.938;4.348;2022-09-14T06:00:54;100620.81;;;18.82;67.35
17362;BME280;8798;51.938;4.348;2022-09-14T06:03:22;100627.09;;;18.83;67.64
17362;BME280;8798;51.938;4.348;2022-09-14T06:05:50;100625.19;;;18.83;67.31
17362;BME280;8798;51.938;4.348;2022-09-14T06:08:22;100625.19;;;18.83;67.53
17362;BME280;8798;51.938;4.348;2022-09-14T06:10:50;100636.09;;;18.83;67.72
17362;BME280;8798;51.938;4.348;2022-09-14T06:13:17;100629.81;;;18.83;67.67
17362;BME280;8798;51.938;4.348;2022-09-14T06:15:45;100628.16;;;18.82;67.54
17362;BME280;8798;51.938;4.348;2022-09-14T06:18:13;100637.16;;;18.82;67.57
17362;BME280;8798;51.938;4.348;2022-09-14T06:20:49;100641.53;;;18.83;67.64
17362;BME280;8798;51.938;4.348;2022-09-14T06:23:17;100633.38;;;18.83;67.46
17362;BME280;8798;51.938;4.348;2022-09-14T06:25:46;100632.72;;;18.81;67.37
17362;BME280;8798;51.938;4.348;2022-09-14T06:28:13;100628.97;;;18.82;67.48
17362;BME280;8798;51.938;4.348;2022-09-14T06:30:42;100642.38;;;18.84;67.38
17362;BME280;8798;51.938;4.348;2022-09-14T06:33:10;100653.88;;;18.86;67.57
17362;BME280;8798;51.938;4.348;2022-09-14T06:35:38;100652.00;;;18.86;67.32
17362;BME280;8798;51.938;4.348;2022-09-14T06:38:07;100656.59;;;18.86;67.52
17362;BME280;8798;51.938;4.348;2022-09-14T06:40:35;100655.56;;;18.87;67.57
17362;BME280;8798;51.938;4.348;2022-09-14T06:43:05;100666.22;;;18.88;67.63
17362;BME280;8798;51.938;4.348;2022-09-14T06:45:33;100667.06;;;18.89;67.46
17362;BME280;8798;51.938;4.348;2022-09-14T06:48:02;100663.50;;;18.88;67.45
17362;BME280;8798;51.938;4.348;2022-09-14T06:50:29;100664.34;;;18.89;67.28
17362;BME280;8798;51.938;4.348;2022-09-14T06:52:58;100683.00;;;18.92;67.62
17362;BME280;8798;51.938;4.348;2022-09-14T06:55:26;100689.06;;;18.94;67.67
17362;BME280;8798;51.938;4.348;2022-09-14T06:57:55;100700.78;;;18.95;67.46
17362;BME280;8798;51.938;4.348;2022-09-14T07:00:24;100705.81;;;18.98;67.77
17362;BME280;8798;51.938;4.348;2022-09-14T07:02:53;100705.81;;;18.98;67.42
17362;BME280;8798;51.938;4.348;2022-09-14T07:05:21;100711.88;;;19.00;67.62
17362;BME280;8798;51.938;4.348;2022-09-14T07:07:50;100706.44;;;19.00;67.65
17362;BME280;8798;51.938;4.348;2022-09-14T07:10:18;100710.19;;;18.99;67.39
17362;BME280;8798;51.938;4.348;2022-09-14T07:12:45;100711.88;;;19.00;67.41
17362;BME280;8798;51.938;4.348;2022-09-14T07:15:13;100717.09;;;19.01;66.90
17362;BME280;8798;51.938;4.348;2022-09-14T07:17:44;100708.94;;;19.01;67.60
17362;BME280;8798;51.938;4.348;2022-09-14T07:20:12;100714.38;;;19.01;67.30
17362;BME280;8798;51.938;4.348;2022-09-14T07:22:41;100708.94;;;19.01;67.16
17362;BME280;8798;51.938;4.348;2022-09-14T07:25:09;100711.88;;;19.00;67.26
17362;BME280;8798;51.938;4.348;2022-09-14T07:27:37;100708.94;;;19.01;67.26
17362;BME280;8798;51.938;4.348;2022-09-14T07:30:06;100717.75;;;19.03;67.41
17362;BME280;8798;51.938;4.348;2022-09-14T07:32:34;100715.00;;;19.03;67.59
17362;BME280;8798;51.938;4.348;2022-09-14T07:35:03;100723.19;;;19.03;67.31
17362;BME280;8798;51.938;4.348;2022-09-14T07:37:31;100710.63;;;19.02;67.04
17362;BME280;8798;51.938;4.348;2022-09-14T07:39:59;100707.06;;;19.02;67.24
17362;BME280;8798;51.938;4.348;2022-09-14T07:42:27;100702.66;;;19.01;67.49
17362;BME280;8798;51.938;4.348;2022-09-14T07:44:55;100699.09;;;19.00;67.14
17362;BME280;8798;51.938;4.348;2022-09-14T07:47:23;100702.66;;;19.01;67.24
17362;BME280;8798;51.938;4.348;2022-09-14T07:49:50;100694.72;;;18.99;66.78
17362;BME280;8798;51.938;4.348;2022-09-14T07:52:19;100698.91;;;19.02;66.83
17362;BME280;8798;51.938;4.348;2022-09-14T07:54:47;100714.19;;;19.03;67.03
17362;BME280;8798;51.938;4.348;2022-09-14T07:57:15;100726.53;;;19.05;66.80
17362;BME280;8798;51.938;4.348;2022-09-14T07:59:42;100723.63;;;19.07;67.05
17362;BME280;8798;51.938;4.348;2022-09-14T08:02:10;100733.44;;;19.08;67.03
17362;BME280;8798;51.938;4.348;2022-09-14T08:04:38;100741.19;;;19.11;66.88
17362;BME280;8798;51.938;4.348;2022-09-14T08:07:05;100747.28;;;19.13;66.75
17362;BME280;8798;51.938;4.348;2022-09-14T08:09:36;100749.78;;;19.15;66.55
17362;BME280;8798;51.938;4.348;2022-09-14T08:12:04;100775.53;;;19.19;66.70
17362;BME280;8798;51.938;4.348;2022-09-14T08:14:32;100781.41;;;19.22;66.66
17362;BME280;8798;51.938;4.348;2022-09-14T08:16:59;100797.34;;;19.25;66.60
17362;BME280;8798;51.938;4.348;2022-09-14T08:19:27;100822.88;;;19.31;66.53
17362;BME280;8798;51.938;4.348;2022-09-14T08:21:55;100833.38;;;19.34;66.48
17362;BME280;8798;51.938;4.348;2022-09-14T08:24:23;100842.78;;;19.38;66.72
17362;BME280;8798;51.938;4.348;2022-09-14T08:26:52;100843.44;;;19.40;66.72
17362;BME280;8798;51.938;4.348;2022-09-14T08:29:20;100854.13;;;19.42;66.72
17362;BME280;8798;51.938;4.348;2022-09-14T08:31:48;100858.53;;;19.43;66.49
17362;BME280;8798;51.938;4.348;2022-09-14T08:34:18;100852.88;;;19.44;66.72
17362;BME280;8798;51.938;4.348;2022-09-14T08:36:46;100863.53;;;19.46;66.64
17362;BME280;8798;51.938;4.348;2022-09-14T08:39:14;100857.91;;;19.47;65.89
17362;BME280;8798;51.938;4.348;2022-09-14T08:41:52;100858.09;;;19.46;66.28
17362;BME280;8798;51.938;4.348;2022-09-14T08:44:24;100849.91;;;19.46;66.42
17362;BME280;8798;51.938;4.348;2022-09-14T08:46:58;100847.19;;;19.46;66.30
17362;BME280;8798;51.938;4.348;2022-09-14T08:49:37;100839.03;;;19.46;66.17
17362;BME280;8798;51.938;4.348;2022-09-14T08:52:12;100832.97;;;19.44;65.80
17362;BME280;8798;51.938;4.348;2022-09-14T08:54:45;100827.50;;;19.44;66.23
17362;BME280;8798;51.938;4.348;2022-09-14T08:57:18;100832.75;;;19.45;66.16
17362;BME280;8798;51.938;4.348;2022-09-14T08:59:56;100832.75;;;19.45;65.79
17362;BME280;8798;51.938;4.348;2022-09-14T09:02:42;100824.56;;;19.45;66.02
17362;BME280;8798;51.938;4.348;2022-09-14T09:05:23;100822.91;;;19.44;65.81
17362;BME280;8798;51.938;4.348;2022-09-14T09:07:57;100819.13;;;19.45;66.05
17362;BME280;8798;51.938;4.348;2022-09-14T09:10:28;100819.13;;;19.45;65.84
17362;BME280;8798;51.938;4.348;2022-09-14T09:13:01;100827.09;;;19.47;65.96
17362;BME280;8798;51.938;4.348;2022-09-14T09:15:34;100817.22;;;19.46;65.77
17362;BME280;8798;51.938;4.348;2022-09-14T09:18:06;100822.47;;;19.47;65.75
17362;BME280;8798;51.938;4.348;2022-09-14T09:20:38;100812.63;;;19.46;65.78
17362;BME280;8798;51.938;4.348;2022-09-14T09:23:10;100792.94;;;19.44;65.79
17362;BME280;8798;51.938;4.348;2022-09-14T09:25:48;100784.31;;;19.41;65.79
17362;BME280;8798;51.938;4.348;2022-09-14T09:28:19;100781.41;;;19.42;65.83
17362;BME280;8798;51.938;4.348;2022-09-14T09:30:48;100787.69;;;19.43;65.92
17362;BME280;8798;51.938;4.348;2022-09-14T09:33:19;100802.75;;;19.45;65.84
17362;BME280;8798;51.938;4.348;2022-09-14T09:35:48;100811.38;;;19.49;65.88
17362;BME280;8798;51.938;4.348;2022-09-14T09:38:17;100820.16;;;19.51;65.66
17362;BME280;8798;51.938;4.348;2022-09-14T09:40:51;100814.69;;;19.51;65.61
17362;BME280;8798;51.938;4.348;2022-09-14T09:43:20;100816.38;;;19.52;65.87
17362;BME280;8798;51.938;4.348;2022-09-14T09:46:10;100818.06;;;19.53;65.68
17362;BME280;8798;51.938;4.348;2022-09-14T09:48:40;100826.03;;;19.54;65.80
17362;BME280;8798;51.938;4.348;2022-09-14T09:51:11;100837.34;;;19.58;65.64
17362;BME280;8798;51.938;4.348;2022-09-14T09:53:46;100862.94;;;19.64;65.86
17362;BME280;8798;51.938;4.348;2022-09-14T09:56:19;100880.34;;;19.69;65.76
17362;BME280;8798;51.938;4.348;2022-09-14T09:58:48;100894.19;;;19.74;65.56
17362;BME280;8798;51.938;4.348;2022-09-14T10:01:20;100909.06;;;19.79;65.73
17362;BME280;8798;51.938;4.348;2022-09-14T10:04:15;100916.00;;;19.81;65.70
17362;BME280;8798;51.938;4.348;2022-09-14T10:06:45;100914.31;;;19.80;65.43
17362;BME280;8798;51.938;4.348;2022-09-14T10:09:14;100906.97;;;19.81;65.58
17362;BME280;8798;51.938;4.348;2022-09-14T10:11:44;100922.69;;;19.85;65.78
17362;BME280;8798;51.938;4.348;2022-09-14T10:14:22;100934.84;;;19.89;65.72
17362;BME280;8798;51.938;4.348;2022-09-14T10:16:52;100940.94;;;19.91;65.40
17362;BME280;8798;51.938;4.348;2022-09-14T10:19:22;100942.41;;;19.94;65.52
17362;BME280;8798;51.938;4.348;2022-09-14T10:22:04;100944.94;;;19.95;65.54
17362;BME280;8798;51.938;4.348;2022-09-14T10:24:52;100964.22;;;20.01;65.29
17362;BME280;8798;51.938;4.348;2022-09-14T10:27:38;100977.19;;;20.05;65.38
17362;BME280;8798;51.938;4.348;2022-09-14T10:30:15;100971.53;;;20.07;65.32
17362;BME280;8798;51.938;4.348;2022-09-14T10:32:47;100985.63;;;20.10;65.45
17362;BME280;8798;51.938;4.348;2022-09-14T10:35:16;100993.38;;;20.13;65.33
17362;BME280;8798;51.938;4.348;2022-09-14T10:37:51;101001.13;;;20.16;65.18
17362;BME280;8798;51.938;4.348;2022-09-14T10:40:26;100997.34;;;20.17;65.25
17362;BME280;8798;51.938;4.348;2022-09-14T10:43:06;100995.47;;;20.18;65.04
17362;BME280;8798;51.938;4.348;2022-09-14T10:45:39;100992.50;;;20.19;65.01
17362;BME280;8798;51.938;4.348;2022-09-14T10:48:34;100988.75;;;20.21;65.09
17362;BME280;8798;51.938;4.348;2022-09-14T10:51:20;100989.59;;;20.21;64.79
17362;BME280;8798;51.938;4.348;2022-09-14T10:53:54;100996.50;;;20.24;64.97
17362;BME280;8798;51.938;4.348;2022-09-14T10:56:32;100994.41;;;20.26;65.00
17362;BME280;8798;51.938;4.348;2022-09-14T10:59:09;100998.38;;;20.30;64.90
17362;BME280;8798;51.938;4.348;2022-09-14T11:01:53;101025.84;;;20.35;64.87
17362;BME280;8798;51.938;4.348;2022-09-14T11:04:46;101037.00;;;20.40;64.81
17362;BME280;8798;51.938;4.348;2022-09-14T11:07:23;101051.88;;;20.44;64.68
17362;BME280;8798;51.938;4.348;2022-09-14T11:09:58;101052.31;;;20.48;64.60
17362;BME280;8798;51.938;4.348;2022-09-14T11:12:34;101054.63;;;20.51;64.56
17362;BME280;8798;51.938;4.348;2022-09-14T11:15:15;101068.66;;;20.54;64.57
17362;BME280;8798;51.938;4.348;2022-09-14T11:18:02;101063.19;;;20.54;64.40
17362;BME280;8798;51.938;4.348;2022-09-14T11:20:42;101047.06;;;20.53;64.35
17362;BME280;8798;51.938;4.348;2022-09-14T11:23:22;101038.88;;;20.53;64.46
17362;BME280;8798;51.938;4.348;2022-09-14T11:25:55;101042.25;;;20.55;64.28
17362;BME280;8798;51.938;4.348;2022-09-14T11:28:26;101015.34;;;20.52;64.11
17362;BME280;8798;51.938;4.348;2022-09-14T11:31:04;100997.72;;;20.48;64.41
17362;BME280;8798;51.938;4.348;2022-09-14T11:33:38;100974.63;;;20.44;63.99
17362;BME280;8798;51.938;4.348;2022-09-14T11:36:12;100961.19;;;20.42;64.14
17362;BME280;8798;51.938;4.348;2022-09-14T11:38:46;100942.72;;;20.37;63.84
17362;BME280;8798;51.938;4.348;2022-09-14T11:41:20;100920.28;;;20.35;64.01
17362;BME280;8798;51.938;4.348;2022-09-14T11:43:53;100904.13;;;20.34;63.82
17362;BME280;8798;51.938;4.348;2022-09-14T11:46:25;100906.66;;;20.35;63.92
17362;BME280;8798;51.938;4.348;2022-09-14T11:49:02;100906.66;;;20.35;63.76
17362;BME280;8798;51.938;4.348;2022-09-14T11:51:37;100902.66;;;20.38;63.78
17362;BME280;8798;51.938;4.348;2022-09-14T11:54:16;100908.13;;;20.38;63.63
17362;BME280;8798;51.938;4.348;2022-09-14T11:56:46;100911.47;;;20.40;63.60
17362;BME280;8798;51.938;4.348;2022-09-14T11:59:44;100920.25;;;20.42;63.56
17362;BME280;8798;51.938;4.348;2022-09-14T12:03:11;100942.91;;;20.49;63.43
17362;BME280;8798;51.938;4.348;2022-09-14T12:05:41;100941.88;;;20.50;63.54
17362;BME280;8798;51.938;4.348;2022-09-14T12:08:37;100938.06;;;20.51;63.64
17362;BME280;8798;51.938;4.348;2022-09-14T12:11:29;100931.78;;;20.51;63.15
17362;BME280;8798;51.938;4.348;2022-09-14T12:14:26;100934.28;;;20.52;63.15
17362;BME280;8798;51.938;4.348;2022-09-14T12:17:02;100944.59;;;20.57;63.39
17362;BME280;8798;51.938;4.348;2022-09-14T12:19:52;100974.41;;;20.65;63.14
17362;BME280;8798;51.938;4.348;2022-09-14T12:22:30;100996.19;;;20.72;63.43
17362;BME280;8798;51.938;4.348;2022-09-14T12:25:10;101011.09;;;20.76;63.26
17362;BME280;8798;51.938;4.348;2022-09-14T12:27:42;101029.34;;;20.82;63.31
17362;BME280;8798;51.938;4.348;2022-09-14T12:33:41;101029.56;;;20.87;63.06
17362;BME280;8798;51.938;4.348;2022-09-14T12:36:11;101025.78;;;20.88;62.92
17362;BME280;8798;51.938;4.348;2022-09-14T12:39:19;101037.09;;;20.92;63.26
17362;BME280;8798;51.938;4.348;2022-09-14T12:44:50;101038.34;;;20.96;62.80
17362;BME280;8798;51.938;4.348;2022-09-14T12:50:20;101043.78;;;21.02;62.88
17362;BME280;8798;51.938;4.348;2022-09-14T12:52:58;101052.63;;;21.04;62.56
17362;BME280;8798;51.938;4.348;2022-09-14T12:55:40;101055.75;;;21.08;62.76
17362;BME280;8798;51.938;4.348;2022-09-14T12:58:28;101070.03;;;21.10;62.81
17362;BME280;8798;51.938;4.348;2022-09-14T13:01:13;101065.41;;;21.11;62.86
17362;BME280;8798;51.938;4.348;2022-09-14T13:03:47;101041.88;;;21.10;62.42
17362;BME280;8798;51.938;4.348;2022-09-14T13:06:16;101026.75;;;21.07;62.49
17362;BME280;8798;51.938;4.348;2022-09-14T13:08:46;101003.44;;;21.04;62.54
17362;BME280;8798;51.938;4.348;2022-09-14T13:11:25;100988.53;;;21.00;62.66
17362;BME280;8798;51.938;4.348;2022-09-14T13:13:55;100980.13;;;21.02;62.57
17362;BME280;8798;51.938;4.348;2022-09-14T13:16:37;100987.25;;;21.03;62.68
17362;BME280;8798;51.938;4.348;2022-09-14T13:19:19;100983.47;;;21.04;62.67
17362;BME280;8798;51.938;4.348;2022-09-14T13:21:48;100992.28;;;21.06;62.47
17362;BME280;8798;51.938;4.348;2022-09-14T13:24:29;100991.00;;;21.09;62.32
17362;BME280;8798;51.938;4.348;2022-09-14T13:27:00;101014.75;;;21.15;62.23
17362;BME280;8798;51.938;4.348;2022-09-14T13:29:28;101039.06;;;21.23;62.20
17362;BME280;8798;51.938;4.348;2022-09-14T13:31:57;101066.38;;;21.30;62.41
17362;BME280;8798;51.938;4.348;2022-09-14T13:34:32;101072.88;;;21.35;62.28
17362;BME280;8798;51.938;4.348;2022-09-14T13:37:01;101077.88;;;21.38;62.10